sensor_id;sensor_type;location;lat;lon;timestamp;temperature;humidity
12588;DHT22;6359;51.450;7.346;2023-07-16T00:01:54;18.70;99.90
12588;DHT22;6359;51.450;7.346;2023-07-16T00:04:21;18.70;99.90
12588;DHT22;6359;51.450;7.346;2023-07-16T00:06:48;18.70;99.90
12588;DHT22;6359;51.450;7.346;2023-07-16T00:09:17;18.80;99.90
12588;DHT22;6359;51.450;7.346;2023-07-16T00:11:44;18.80;99.90
12588;DHT22;6359;51.450;7.346;2023-07-16T00:14:11;18.80;99.90
12588;DHT22;6359;51.450;7.346;2023-07-16T00:16:38;18.80;99.90
12588;DHT22;6359;51.450;7.346;2023-07-16T00:19:05;18.80;99.90
12588;DHT22;6359;51.450;7.346;2023-07-16T00:21:32;18.70;99.90
12588;DHT22;6359;51.450;7.346;2023-07-16T00:23:59;18.60;99.90
12588;DHT22;6359;51.450;7.346;2023-07-16T00:26:28;18.60;99.90
12588;DHT22;6359;51.450;7.346;2023-07-16T00:28:55;18.60;99.90
12588;DHT22;6359;51.450;7.346;2023-07-16T00:31:22;18.60;99.90
12588;DHT22;6359;51.450;7.346;2023-07-16T00:33:49;18.60;99.90
12588;DHT22;6359;51.450;7.346;2023-07-16T00:36:16;18.50;99.90
12588;DHT22;6359;51.450;7.346;2023-07-16T00:38:44;18.50;99.90
12588;DHT22;6359;51.450;7.346;2023-07-16T00:41:12;18.50;99.90
12588;DHT22;6359;51.450;7.346;2023-07-16T00:43:41;18.50;99.90
12588;DHT22;6359;51.450;7.346;2023-07-16T00:46:08;18.50;99.90
12588;DHT22;6359;51.450;7.346;2023-07-16T00:48:36;18.50;99.90
12588;DHT22;6359;51.450;7.346;2023-07-16T00:51:04;18.50;99.90
12588;DHT22;6359;51.450;7.346;2023-07-16T00:53:32;18.50;99.90
12588;DHT22;6359;51.450;7.346;2023-07-16T00:55:59;18.40;99.90
12588;DHT22;6359;51.450;7.346;2023-07-16T00:58:26;18.40;99.90
12588;DHT22;6359;51.450;7.346;2023-07-16T01:00:56;18.40;99.90
12588;DHT22;6359;51.450;7.346;2023-07-16T01:03:23;18.40;99.90
12588;DHT22;6359;51.450;7.346;2023-07-16T01:05:57;18.30;99.90
12588;DHT22;6359;51.450;7.346;2023-07-16T01:08:30;18.30;99.90
12588;DHT22;6359;51.450;7.346;2023-07-16T01:11:00;18.40;99.90
12588;DHT22;6359;51.450;7.346;2023-07-16T01:13:27;18.40;99.90
12588;DHT22;6359;51.450;7.346;2023-07-16T01:15:56;18.50;99.90
12588;DHT22;6359;51.450;7.346;2023-07-16T01:18:23;18.50;99.90
12588;DHT22;6359;51.450;7.346;2023-07-16T01:20:50;18.50;99.90
12588;DHT22;6359;51.450;7.346;2023-07-16T01:23:40;18.50;99.90
12588;DHT22;6359;51.450;7.346;2023-07-16T01:26:27;18.50;99.90
12588;DHT22;6359;51.450;7.346;2023-07-16T01:29:27;18.50;99.90
12588;DHT22;6359;51.450;7.346;2023-07-16T01:31:56;18.50;99.90
12588;DHT22;6359;51.450;7.346;2023-07-16T01:34:24;18.40;99.90
12588;DHT22;6359;51.450;7.346;2023-07-16T01:36:53;18.40;99.90
12588;DHT22;6359;51.450;7.346;2023-07-16T01:39:20;18.30;99.90
12588;DHT22;6359;51.450;7.346;2023-07-16T01:41:48;18.20;99.90
12588;DHT22;6359;51.450;7.346;2023-07-16T01:44:16;18.10;99.90
12588;DHT22;6359;51.450;7.346;2023-07-16T01:46:49;18.00;99.90
12588;DHT22;6359;51.450;7.346;2023-07-16T01:49:20;18.00;99.90
12588;DHT22;6359;51.450;7.346;2023-07-16T01:51:47;17.90;99.90
12588;DHT22;6359;51.450;7.346;2023-07-16T01:54:14;17.90;99.90
12588;DHT22;6359;51.450;7.346;2023-07-16T01:56:41;17.90;99.90
12588;DHT22;6359;51.450;7.346;2023-07-16T01:59:08;17.80;99.90
12588;DHT22;6359;51.450;7.346;2023-07-16T02:01:37;17.70;99.90
12588;DHT22;6359;51.450;7.346;2023-07-16T02:04:04;17.70;99.90
12588;DHT22;6359;51.450;7.346;2023-07-16T02:06:34;17.70;99.90
12588;DHT22;6359;51.450;7.346;2023-07-16T02:09:01;17.70;99.90
12588;DHT22;6359;51.450;7.346;2023-07-16T02:11:29;17.70;99.90
12588;DHT22;6359;51.450;7.346;2023-07-16T02:13:56;17.70;99.90
12588;DHT22;6359;51.450;7.346;2023-07-16T02:16:23;17.60;99.90
12588;DHT22;6359;51.450;7.346;2023-07-16T02:18:51;17.70;99.90
12588;DHT22;6359;51.450;7.346;2023-07-16T02:21:18;17.60;99.90
12588;DHT22;6359;51.450;7.346;2023-07-16T02:23:47;17.70;99.90
12588;DHT22;6359;51.450;7.346;2023-07-16T02:26:15;17.60;99.90
12588;DHT22;6359;51.450;7.346;2023-07-16T02:28:42;17.60;99.90
12588;DHT22;6359;51.450;7.346;2023-07-16T02:31:09;17.50;99.90
12588;DHT22;6359;51.450;7.346;2023-07-16T02:33:36;17.50;99.90
12588;DHT22;6359;51.450;7.346;2023-07-16T02:36:04;17.50;99.90
12588;DHT22;6359;51.450;7.346;2023-07-16T02:38:32;17.50;99.90
12588;DHT22;6359;51.450;7.346;2023-07-16T02:40:59;17.50;99.90
12588;DHT22;6359;51.450;7.346;2023-07-16T02:43:26;17.50;99.90
12588;DHT22;6359;51.450;7.346;2023-07-16T02:45:53;17.50;99.90
12588;DHT22;6359;51.450;7.346;2023-07-16T02:48:21;17.50;99.90
12588;DHT22;6359;51.450;7.346;2023-07-16T02:50:48;17.50;99.90
12588;DHT22;6359;51.450;7.346;2023-07-16T02:53:17;17.50;99.90
12588;DHT22;6359;51.450;7.346;2023-07-16T02:55:45;17.70;99.90
12588;DHT22;6359;51.450;7.346;2023-07-16T02:58:13;17.70;99.90
12588;DHT22;6359;51.450;7.346;2023-07-16T03:00:40;17.80;99.90
12588;DHT22;6359;51.450;7.346;2023-07-16T03:03:08;17.90;99.90
12588;DHT22;6359;51.450;7.346;2023-07-16T03:05:35;18.00;99.90
12588;DHT22;6359;51.450;7.346;2023-07-16T03:08:02;18.00;99.90
12588;DHT22;6359;51.450;7.346;2023-07-16T03:10:31;18.10;99.90
12588;DHT22;6359;51.450;7.346;2023-07-16T03:12:58;18.10;99.90
12588;DHT22;6359;51.450;7.346;2023-07-16T03:15:25;18.10;99.90
12588;DHT22;6359;51.450;7.346;2023-07-16T03:17:52;18.20;99.90
12588;DHT22;6359;51.450;7.346;2023-07-16T03:20:19;18.20;99.90
12588;DHT22;6359;51.450;7.346;2023-07-16T03:22:47;18.20;99.90
12588;DHT22;6359;51.450;7.346;2023-07-16T03:25:14;18.10;99.90
12588;DHT22;6359;51.450;7.346;2023-07-16T03:27:43;18.00;99.90
12588;DHT22;6359;51.450;7.346;2023-07-16T03:30:11;18.00;99.90
12588;DHT22;6359;51.450;7.346;2023-07-16T03:32:39;18.00;99.90
12588;DHT22;6359;51.450;7.346;2023-07-16T03:35:06;18.00;99.90
12588;DHT22;6359;51.450;7.346;2023-07-16T03:37:33;18.00;99.90
12588;DHT22;6359;51.450;7.346;2023-07-16T03:40:12;17.90;99.90
12588;DHT22;6359;51.450;7.346;2023-07-16T03:42:44;17.80;99.90
12588;DHT22;6359;51.450;7.346;2023-07-16T03:45:11;17.80;99.90
12588;DHT22;6359;51.450;7.346;2023-07-16T03:47:39;17.80;99.90
12588;DHT22;6359;51.450;7.346;2023-07-16T03:50:07;17.80;99.90
12588;DHT22;6359;51.450;7.346;2023-07-16T03:52:35;17.80;99.90
12588;DHT22;6359;51.450;7.346;2023-07-16T03:55:02;17.80;99.90
12588;DHT22;6359;51.450;7.346;2023-07-16T03:57:29;17.70;99.90
12588;DHT22;6359;51.450;7.346;2023-07-16T03:59:58;17.70;99.90
12588;DHT22;6359;51.450;7.346;2023-07-16T04:02:25;17.60;99.90
12588;DHT22;6359;51.450;7.346;2023-07-16T04:04:52;17.60;99.90
12588;DHT22;6359;51.450;7.346;2023-07-16T04:07:19;17.70;99.90
12588;DHT22;6359;51.450;7.346;2023-07-16T04:09:47;17.70;99.90
12588;DHT22;6359;51.450;7.346;2023-07-16T04:12:14;17.70;99.90
12588;DHT22;6359;51.450;7.346;2023-07-16T04:14:41;17.60;99.90
12588;DHT22;6359;51.450;7.346;2023-07-16T04:17:09;17.60;99.90
12588;DHT22;6359;51.450;7.346;2023-07-16T04:19:36;17.60;99.90
12588;DHT22;6359;51.450;7.346;2023-07-16T04:22:04;17.60;99.90
12588;DHT22;6359;51.450;7.346;2023-07-16T04:24:31;17.60;99.90
12588;DHT22;6359;51.450;7.346;2023-07-16T04:26:59;17.70;99.90
12588;DHT22;6359;51.450;7.346;2023-07-16T04:29:26;17.70;99.90
12588;DHT22;6359;51.450;7.346;2023-07-16T04:31:53;17.70;99.90
12588;DHT22;6359;51.450;7.346;2023-07-16T04:34:21;17.60;99.90
12588;DHT22;6359;51.450;7.346;2023-07-16T04:36:49;17.60;99.90
12588;DHT22;6359;51.450;7.346;2023-07-16T04:39:16;17.70;99.90
12588;DHT22;6359;51.450;7.346;2023-07-16T04:41:43;17.60;99.90
12588;DHT22;6359;51.450;7.346;2023-07-16T04:44:10;17.60;99.90
12588;DHT22;6359;51.450;7.346;2023-07-16T04:46:37;17.60;99.90
12588;DHT22;6359;51.450;7.346;2023-07-16T04:49:05;17.70;99.90
12588;DHT22;6359;51.450;7.346;2023-07-16T04:51:33;17.70;99.90
12588;DHT22;6359;51.450;7.346;2023-07-16T04:54:00;17.70;99.90
12588;DHT22;6359;51.450;7.346;2023-07-16T04:56:27;17.70;99.90
12588;DHT22;6359;51.450;7.346;2023-07-16T04:58:54;17.70;99.90
12588;DHT22;6359;51.450;7.346;2023-07-16T05:01:21;17.80;99.90
12588;DHT22;6359;51.450;7.346;2023-07-16T05:03:48;17.80;99.90
12588;DHT22;6359;51.450;7.346;2023-07-16T05:06:15;17.90;99.90
12588;DHT22;6359;51.450;7.346;2023-07-16T05:08:44;17.90;99.90
12588;DHT22;6359;51.450;7.346;2023-07-16T05:11:12;17.90;99.90
12588;DHT22;6359;51.450;7.346;2023-07-16T05:13:39;18.00;99.90
12588;DHT22;6359;51.450;7.346;2023-07-16T05:16:06;18.00;99.90
12588;DHT22;6359;51.450;7.346;2023-07-16T05:18:33;18.10;99.90
12588;DHT22;6359;51.450;7.346;2023-07-16T05:21:00;18.10;99.90
12588;DHT22;6359;51.450;7.346;2023-07-16T05:23:27;18.10;99.90
12588;DHT22;6359;51.450;7.346;2023-07-16T05:25:55;18.20;99.90
12588;DHT22;6359;51.450;7.346;2023-07-16T05:28:23;18.40;99.90
12588;DHT22;6359;51.450;7.346;2023-07-16T05:30:58;19.40;99.90
12588;DHT22;6359;51.450;7.346;2023-07-16T05:33:25;20.80;99.90
12588;DHT22;6359;51.450;7.346;2023-07-16T05:35:52;21.90;99.90
12588;DHT22;6359;51.450;7.346;2023-07-16T05:38:19;22.70;99.90
12588;DHT22;6359;51.450;7.346;2023-07-16T05:40:46;23.40;99.90
12588;DHT22;6359;51.450;7.346;2023-07-16T05:43:15;24.20;99.90
12588;DHT22;6359;51.450;7.346;2023-07-16T05:45:42;24.40;99.90
12588;DHT22;6359;51.450;7.346;2023-07-16T05:48:09;24.80;99.90
12588;DHT22;6359;51.450;7.346;2023-07-16T05:50:36;25.10;99.90
12588;DHT22;6359;51.450;7.346;2023-07-16T05:53:03;25.10;99.90
12588;DHT22;6359;51.450;7.346;2023-07-16T05:55:30;25.50;99.60
12588;DHT22;6359;51.450;7.346;2023-07-16T05:57:57;25.90;98.30
12588;DHT22;6359;51.450;7.346;2023-07-16T06:00:25;25.70;97.20
12588;DHT22;6359;51.450;7.346;2023-07-16T06:02:52;25.70;97.40
12588;DHT22;6359;51.450;7.346;2023-07-16T06:05:19;25.80;97.20
12588;DHT22;6359;51.450;7.346;2023-07-16T06:07:46;26.20;95.50
12588;DHT22;6359;51.450;7.346;2023-07-16T06:10:13;26.30;94.90
12588;DHT22;6359;51.450;7.346;2023-07-16T06:12:40;26.00;94.60
12588;DHT22;6359;51.450;7.346;2023-07-16T06:15:08;25.90;94.90
12588;DHT22;6359;51.450;7.346;2023-07-16T06:17:37;26.30;93.90
12588;DHT22;6359;51.450;7.346;2023-07-16T06:20:05;26.80;93.00
12588;DHT22;6359;51.450;7.346;2023-07-16T06:22:32;26.60;92.10
12588;DHT22;6359;51.450;7.346;2023-07-16T06:24:59;25.80;93.10
12588;DHT22;6359;51.450;7.346;2023-07-16T06:27:26;26.10;92.70
12588;DHT22;6359;51.450;7.346;2023-07-16T06:29:54;26.20;92.70
12588;DHT22;6359;51.450;7.346;2023-07-16T06:32:21;26.10;92.30
12588;DHT22;6359;51.450;7.346;2023-07-16T06:34:49;26.30;92.80
12588;DHT22;6359;51.450;7.346;2023-07-16T06:37:17;26.10;91.70
12588;DHT22;6359;51.450;7.346;2023-07-16T06:39:44;26.50;91.90
12588;DHT22;6359;51.450;7.346;2023-07-16T06:42:11;26.40;90.80
12588;DHT22;6359;51.450;7.346;2023-07-16T06:44:38;26.50;91.10
12588;DHT22;6359;51.450;7.346;2023-07-16T06:47:05;26.30;91.50
12588;DHT22;6359;51.450;7.346;2023-07-16T06:49:32;26.80;91.40
12588;DHT22;6359;51.450;7.346;2023-07-16T06:52:01;26.50;90.10
12588;DHT22;6359;51.450;7.346;2023-07-16T06:54:29;26.30;88.60
12588;DHT22;6359;51.450;7.346;2023-07-16T06:56:56;26.40;90.50
12588;DHT22;6359;51.450;7.346;2023-07-16T06:59:23;27.00;90.30
12588;DHT22;6359;51.450;7.346;2023-07-16T07:01:50;27.30;86.90
12588;DHT22;6359;51.450;7.346;2023-07-16T07:04:17;26.70;89.90
12588;DHT22;6359;51.450;7.346;2023-07-16T07:06:44;26.60;87.60
12588;DHT22;6359;51.450;7.346;2023-07-16T07:09:12;26.60;89.90
12588;DHT22;6359;51.450;7.346;2023-07-16T07:11:39;27.40;87.40
12588;DHT22;6359;51.450;7.346;2023-07-16T07:14:06;28.00;84.00
12588;DHT22;6359;51.450;7.346;2023-07-16T07:16:33;27.40;82.10
12588;DHT22;6359;51.450;7.346;2023-07-16T07:19:00;26.90;83.80
12588;DHT22;6359;51.450;7.346;2023-07-16T07:21:28;27.00;81.90
12588;DHT22;6359;51.450;7.346;2023-07-16T07:23:55;27.40;83.20
12588;DHT22;6359;51.450;7.346;2023-07-16T07:26:24;28.00;81.70
12588;DHT22;6359;51.450;7.346;2023-07-16T07:28:51;27.60;79.80
12588;DHT22;6359;51.450;7.346;2023-07-16T07:31:18;27.20;81.00
12588;DHT22;6359;51.450;7.346;2023-07-16T07:33:46;27.10;80.10
12588;DHT22;6359;51.450;7.346;2023-07-16T07:36:13;27.10;79.90
12588;DHT22;6359;51.450;7.346;2023-07-16T07:38:40;27.00;80.40
12588;DHT22;6359;51.450;7.346;2023-07-16T07:41:07;27.30;80.00
12588;DHT22;6359;51.450;7.346;2023-07-16T07:43:36;27.40;78.20
12588;DHT22;6359;51.450;7.346;2023-07-16T07:46:03;27.70;76.60
12588;DHT22;6359;51.450;7.346;2023-07-16T07:48:31;28.40;76.60
12588;DHT22;6359;51.450;7.346;2023-07-16T07:50:58;29.30;71.30
12588;DHT22;6359;51.450;7.346;2023-07-16T07:53:25;29.60;70.80
12588;DHT22;6359;51.450;7.346;2023-07-16T07:55:53;29.20;69.20
12588;DHT22;6359;51.450;7.346;2023-07-16T07:58:20;29.00;66.30
12588;DHT22;6359;51.450;7.346;2023-07-16T08:00:49;28.30;67.00
12588;DHT22;6359;51.450;7.346;2023-07-16T08:03:16;28.40;67.50
12588;DHT22;6359;51.450;7.346;2023-07-16T08:05:43;28.80;63.30
12588;DHT22;6359;51.450;7.346;2023-07-16T08:08:10;29.20;63.60
12588;DHT22;6359;51.450;7.346;2023-07-16T08:10:37;29.20;62.40
12588;DHT22;6359;51.450;7.346;2023-07-16T08:13:06;28.90;63.70
12588;DHT22;6359;51.450;7.346;2023-07-16T08:15:33;29.10;59.90
12588;DHT22;6359;51.450;7.346;2023-07-16T08:18:02;29.50;59.00
12588;DHT22;6359;51.450;7.346;2023-07-16T08:20:29;29.70;59.80
12588;DHT22;6359;51.450;7.346;2023-07-16T08:22:56;29.50;56.30
12588;DHT22;6359;51.450;7.346;2023-07-16T08:25:23;29.20;57.30
12588;DHT22;6359;51.450;7.346;2023-07-16T08:27:52;29.30;56.80
12588;DHT22;6359;51.450;7.346;2023-07-16T08:30:19;29.20;59.70
12588;DHT22;6359;51.450;7.346;2023-07-16T08:32:46;29.60;57.20
12588;DHT22;6359;51.450;7.346;2023-07-16T08:35:15;29.30;58.30
12588;DHT22;6359;51.450;7.346;2023-07-16T08:37:43;29.10;57.90
12588;DHT22;6359;51.450;7.346;2023-07-16T08:40:11;29.20;56.80
12588;DHT22;6359;51.450;7.346;2023-07-16T08:42:38;29.10;54.90
12588;DHT22;6359;51.450;7.346;2023-07-16T08:45:07;29.20;54.80
12588;DHT22;6359;51.450;7.346;2023-07-16T08:47:36;29.60;56.00
12588;DHT22;6359;51.450;7.346;2023-07-16T08:50:04;29.60;53.40
12588;DHT22;6359;51.450;7.346;2023-07-16T08:52:32;30.20;52.70
12588;DHT22;6359;51.450;7.346;2023-07-16T08:54:59;30.40;54.00
12588;DHT22;6359;51.450;7.346;2023-07-16T08:57:27;30.20;51.10
12588;DHT22;6359;51.450;7.346;2023-07-16T08:59:55;30.00;52.80
12588;DHT22;6359;51.450;7.346;2023-07-16T09:02:23;29.90;52.00
12588;DHT22;6359;51.450;7.346;2023-07-16T09:04:50;28.90;53.00
12588;DHT22;6359;51.450;7.346;2023-07-16T09:07:17;29.60;54.30
12588;DHT22;6359;51.450;7.346;2023-07-16T09:09:56;29.80;52.40
12588;DHT22;6359;51.450;7.346;2023-07-16T09:12:25;29.50;52.40
12588;DHT22;6359;51.450;7.346;2023-07-16T09:14:54;29.60;51.90
12588;DHT22;6359;51.450;7.346;2023-07-16T09:17:21;29.80;51.00
12588;DHT22;6359;51.450;7.346;2023-07-16T09:19:50;30.30;51.70
12588;DHT22;6359;51.450;7.346;2023-07-16T09:22:17;30.60;47.00
12588;DHT22;6359;51.450;7.346;2023-07-16T09:24:45;30.10;47.40
12588;DHT22;6359;51.450;7.346;2023-07-16T09:27:14;29.20;49.60
12588;DHT22;6359;51.450;7.346;2023-07-16T09:29:41;29.50;49.10
12588;DHT22;6359;51.450;7.346;2023-07-16T09:32:08;29.80;50.60
12588;DHT22;6359;51.450;7.346;2023-07-16T09:34:35;29.90;45.20
12588;DHT22;6359;51.450;7.346;2023-07-16T09:37:04;30.10;48.90
12588;DHT22;6359;51.450;7.346;2023-07-16T09:39:32;31.00;47.00
12588;DHT22;6359;51.450;7.346;2023-07-16T09:41:59;31.20;45.40
12588;DHT22;6359;51.450;7.346;2023-07-16T09:44:28;30.80;43.50
12588;DHT22;6359;51.450;7.346;2023-07-16T09:46:56;30.60;45.70
12588;DHT22;6359;51.450;7.346;2023-07-16T09:49:23;30.60;45.70
12588;DHT22;6359;51.450;7.346;2023-07-16T09:51:52;30.30;42.20
12588;DHT22;6359;51.450;7.346;2023-07-16T09:54:25;29.70;43.70
12588;DHT22;6359;51.450;7.346;2023-07-16T09:56:56;28.20;45.20
12588;DHT22;6359;51.450;7.346;2023-07-16T09:59:29;27.10;49.30
12588;DHT22;6359;51.450;7.346;2023-07-16T10:01:57;26.90;50.60
12588;DHT22;6359;51.450;7.346;2023-07-16T10:04:24;26.70;51.00
12588;DHT22;6359;51.450;7.346;2023-07-16T10:06:52;26.70;52.00
12588;DHT22;6359;51.450;7.346;2023-07-16T10:09:36;26.30;51.00
12588;DHT22;6359;51.450;7.346;2023-07-16T10:12:14;25.80;55.20
12588;DHT22;6359;51.450;7.346;2023-07-16T10:14:44;25.80;55.20
12588;DHT22;6359;51.450;7.346;2023-07-16T10:17:15;26.20;51.70
12588;DHT22;6359;51.450;7.346;2023-07-16T10:19:50;25.30;52.30
12588;DHT22;6359;51.450;7.346;2023-07-16T10:22:18;25.70;57.50
12588;DHT22;6359;51.450;7.346;2023-07-16T10:24:51;25.90;54.60
12588;DHT22;6359;51.450;7.346;2023-07-16T10:27:30;25.80;56.10
12588;DHT22;6359;51.450;7.346;2023-07-16T10:29:59;25.50;56.20
12588;DHT22;6359;51.450;7.346;2023-07-16T10:32:29;26.30;57.00
12588;DHT22;6359;51.450;7.346;2023-07-16T10:34:56;27.10;54.80
12588;DHT22;6359;51.450;7.346;2023-07-16T10:37:23;27.50;53.00
12588;DHT22;6359;51.450;7.346;2023-07-16T10:39:52;27.40;54.30
12588;DHT22;6359;51.450;7.346;2023-07-16T10:42:20;27.40;52.90
12588;DHT22;6359;51.450;7.346;2023-07-16T10:44:49;27.90;53.50
12588;DHT22;6359;51.450;7.346;2023-07-16T10:47:23;28.50;51.90
12588;DHT22;6359;51.450;7.346;2023-07-16T10:49:51;28.00;53.40
12588;DHT22;6359;51.450;7.346;2023-07-16T10:52:20;28.00;50.00
12588;DHT22;6359;51.450;7.346;2023-07-16T10:54:48;27.40;53.10
12588;DHT22;6359;51.450;7.346;2023-07-16T10:57:16;26.70;53.40
12588;DHT22;6359;51.450;7.346;2023-07-16T10:59:44;27.30;53.90
12588;DHT22;6359;51.450;7.346;2023-07-16T11:02:12;27.70;52.70
12588;DHT22;6359;51.450;7.346;2023-07-16T11:04:43;27.90;53.50
12588;DHT22;6359;51.450;7.346;2023-07-16T11:07:12;27.60;52.60
12588;DHT22;6359;51.450;7.346;2023-07-16T11:09:43;27.50;55.70
12588;DHT22;6359;51.450;7.346;2023-07-16T11:12:11;28.10;54.30
12588;DHT22;6359;51.450;7.346;2023-07-16T11:14:43;28.20;53.10
12588;DHT22;6359;51.450;7.346;2023-07-16T11:17:11;28.00;54.10
12588;DHT22;6359;51.450;7.346;2023-07-16T11:19:43;27.70;51.90
12588;DHT22;6359;51.450;7.346;2023-07-16T11:22:11;27.00;52.50
12588;DHT22;6359;51.450;7.346;2023-07-16T11:24:40;26.70;54.50
12588;DHT22;6359;51.450;7.346;2023-07-16T11:27:13;26.50;56.00
12588;DHT22;6359;51.450;7.346;2023-07-16T11:29:44;26.70;57.50
12588;DHT22;6359;51.450;7.346;2023-07-16T11:32:11;26.40;56.20
12588;DHT22;6359;51.450;7.346;2023-07-16T11:34:52;26.50;60.60
12588;DHT22;6359;51.450;7.346;2023-07-16T11:37:20;26.20;58.00
12588;DHT22;6359;51.450;7.346;2023-07-16T11:39:48;25.80;59.40
12588;DHT22;6359;51.450;7.346;2023-07-16T11:42:19;25.30;60.60
12588;DHT22;6359;51.450;7.346;2023-07-16T11:44:50;25.30;65.40
12588;DHT22;6359;51.450;7.346;2023-07-16T11:47:17;25.60;61.60
12588;DHT22;6359;51.450;7.346;2023-07-16T11:49:44;25.30;61.70
12588;DHT22;6359;51.450;7.346;2023-07-16T11:52:13;25.00;63.10
12588;DHT22;6359;51.450;7.346;2023-07-16T11:54:40;24.80;65.40
12588;DHT22;6359;51.450;7.346;2023-07-16T11:57:07;25.20;63.00
12588;DHT22;6359;51.450;7.346;2023-07-16T11:59:34;25.20;63.60
12588;DHT22;6359;51.450;7.346;2023-07-16T12:02:01;25.40;64.60
12588;DHT22;6359;51.450;7.346;2023-07-16T12:04:29;25.20;64.90
12588;DHT22;6359;51.450;7.346;2023-07-16T12:06:56;24.90;65.30
12588;DHT22;6359;51.450;7.346;2023-07-16T12:09:24;24.80;65.80
12588;DHT22;6359;51.450;7.346;2023-07-16T12:11:51;24.90;66.90
12588;DHT22;6359;51.450;7.346;2023-07-16T12:14:18;24.80;66.90
12588;DHT22;6359;51.450;7.346;2023-07-16T12:16:45;24.80;67.30
12588;DHT22;6359;51.450;7.346;2023-07-16T12:19:12;24.80;67.00
12588;DHT22;6359;51.450;7.346;2023-07-16T12:21:40;25.00;67.20
12588;DHT22;6359;51.450;7.346;2023-07-16T12:24:07;24.90;68.30
12588;DHT22;6359;51.450;7.346;2023-07-16T12:26:35;25.20;68.00
12588;DHT22;6359;51.450;7.346;2023-07-16T12:29:03;25.50;65.40
12588;DHT22;6359;51.450;7.346;2023-07-16T12:31:30;25.40;65.90
12588;DHT22;6359;51.450;7.346;2023-07-16T12:33:58;25.70;66.00
12588;DHT22;6359;51.450;7.346;2023-07-16T12:36:25;25.60;66.60
12588;DHT22;6359;51.450;7.346;2023-07-16T12:38:52;25.50;65.70
12588;DHT22;6359;51.450;7.346;2023-07-16T12:41:19;25.50;65.90
12588;DHT22;6359;51.450;7.346;2023-07-16T12:43:47;25.60;67.10
12588;DHT22;6359;51.450;7.346;2023-07-16T12:46:15;25.60;67.90
12588;DHT22;6359;51.450;7.346;2023-07-16T12:48:42;25.80;66.90
12588;DHT22;6359;51.450;7.346;2023-07-16T12:51:09;25.60;68.20
12588;DHT22;6359;51.450;7.346;2023-07-16T12:53:36;25.70;67.60
12588;DHT22;6359;51.450;7.346;2023-07-16T12:56:04;25.40;67.40
12588;DHT22;6359;51.450;7.346;2023-07-16T12:58:31;25.40;68.00
12588;DHT22;6359;51.450;7.346;2023-07-16T13:01:00;25.30;67.10
12588;DHT22;6359;51.450;7.346;2023-07-16T13:03:27;25.40;74.00
12588;DHT22;6359;51.450;7.346;2023-07-16T13:05:54;26.10;71.30
12588;DHT22;6359;51.450;7.346;2023-07-16T13:08:21;26.00;68.10
12588;DHT22;6359;51.450;7.346;2023-07-16T13:10:48;25.60;68.10
12588;DHT22;6359;51.450;7.346;2023-07-16T13:13:15;25.40;66.80
12588;DHT22;6359;51.450;7.346;2023-07-16T13:15:42;25.50;68.30
12588;DHT22;6359;51.450;7.346;2023-07-16T13:18:12;25.40;70.90
12588;DHT22;6359;51.450;7.346;2023-07-16T13:20:39;25.50;69.70
12588;DHT22;6359;51.450;7.346;2023-07-16T13:23:06;25.40;69.20
12588;DHT22;6359;51.450;7.346;2023-07-16T13:25:34;25.20;66.90
12588;DHT22;6359;51.450;7.346;2023-07-16T13:28:01;25.00;69.10
12588;DHT22;6359;51.450;7.346;2023-07-16T13:30:28;25.30;69.20
12588;DHT22;6359;51.450;7.346;2023-07-16T13:32:56;25.70;66.50
12588;DHT22;6359;51.450;7.346;2023-07-16T13:35:24;25.90;67.40
12588;DHT22;6359;51.450;7.346;2023-07-16T13:37:51;25.60;64.10
12588;DHT22;6359;51.450;7.346;2023-07-16T13:40:19;25.50;68.90
12588;DHT22;6359;51.450;7.346;2023-07-16T13:42:46;25.50;66.10
12588;DHT22;6359;51.450;7.346;2023-07-16T13:45:14;25.80;68.50
12588;DHT22;6359;51.450;7.346;2023-07-16T13:47:41;25.90;69.30
12588;DHT22;6359;51.450;7.346;2023-07-16T13:50:09;25.50;64.00
12588;DHT22;6359;51.450;7.346;2023-07-16T13:52:37;24.90;66.30
12588;DHT22;6359;51.450;7.346;2023-07-16T13:55:05;24.60;66.80
12588;DHT22;6359;51.450;7.346;2023-07-16T13:57:32;24.70;65.70
12588;DHT22;6359;51.450;7.346;2023-07-16T13:59:59;25.20;66.50
12588;DHT22;6359;51.450;7.346;2023-07-16T14:02:27;25.50;65.00
12588;DHT22;6359;51.450;7.346;2023-07-16T14:04:54;25.70;66.20
12588;DHT22;6359;51.450;7.346;2023-07-16T14:07:21;25.50;66.30
12588;DHT22;6359;51.450;7.346;2023-07-16T14:09:49;25.40;64.00
12588;DHT22;6359;51.450;7.346;2023-07-16T14:12:16;25.20;66.80
12588;DHT22;6359;51.450;7.346;2023-07-16T14:14:43;25.00;63.90
12588;DHT22;6359;51.450;7.346;2023-07-16T14:17:10;25.10;66.40
12588;DHT22;6359;51.450;7.346;2023-07-16T14:19:37;25.10;66.00
12588;DHT22;6359;51.450;7.346;2023-07-16T14:22:04;25.10;64.60
12588;DHT22;6359;51.450;7.346;2023-07-16T14:24:31;25.10;70.10
12588;DHT22;6359;51.450;7.346;2023-07-16T14:27:00;25.10;68.10
12588;DHT22;6359;51.450;7.346;2023-07-16T14:29:27;25.10;70.80
12588;DHT22;6359;51.450;7.346;2023-07-16T14:31:55;25.10;67.40
12588;DHT22;6359;51.450;7.346;2023-07-16T14:34:22;25.00;66.80
12588;DHT22;6359;51.450;7.346;2023-07-16T14:36:49;25.00;66.60
12588;DHT22;6359;51.450;7.346;2023-07-16T14:39:16;25.10;68.50
12588;DHT22;6359;51.450;7.346;2023-07-16T14:41:44;25.10;67.10
12588;DHT22;6359;51.450;7.346;2023-07-16T14:44:12;24.90;67.30
12588;DHT22;6359;51.450;7.346;2023-07-16T14:46:39;25.10;68.00
12588;DHT22;6359;51.450;7.346;2023-07-16T14:49:06;25.30;69.80
12588;DHT22;6359;51.450;7.346;2023-07-16T14:51:33;25.20;71.10
12588;DHT22;6359;51.450;7.346;2023-07-16T14:54:05;25.10;70.70
12588;DHT22;6359;51.450;7.346;2023-07-16T14:56:33;25.00;75.00
12588;DHT22;6359;51.450;7.346;2023-07-16T14:59:00;24.90;78.20
12588;DHT22;6359;51.450;7.346;2023-07-16T15:01:28;24.80;76.70
12588;DHT22;6359;51.450;7.346;2023-07-16T15:03:55;24.70;79.30
12588;DHT22;6359;51.450;7.346;2023-07-16T15:06:22;24.70;80.10
12588;DHT22;6359;51.450;7.346;2023-07-16T15:08:50;24.90;81.00
12588;DHT22;6359;51.450;7.346;2023-07-16T15:11:17;25.10;77.50
12588;DHT22;6359;51.450;7.346;2023-07-16T15:13:44;25.10;78.10
12588;DHT22;6359;51.450;7.346;2023-07-16T15:16:11;25.10;80.10
12588;DHT22;6359;51.450;7.346;2023-07-16T15:18:40;25.20;78.30
12588;DHT22;6359;51.450;7.346;2023-07-16T15:21:08;25.00;78.50
12588;DHT22;6359;51.450;7.346;2023-07-16T15:23:35;24.90;80.10
12588;DHT22;6359;51.450;7.346;2023-07-16T15:26:06;25.00;78.20
12588;DHT22;6359;51.450;7.346;2023-07-16T15:28:36;25.00;80.00
12588;DHT22;6359;51.450;7.346;2023-07-16T15:31:04;25.00;76.20
12588;DHT22;6359;51.450;7.346;2023-07-16T15:33:31;24.90;78.70
12588;DHT22;6359;51.450;7.346;2023-07-16T15:36:00;24.90;80.60
12588;DHT22;6359;51.450;7.346;2023-07-16T15:38:29;25.20;77.10
12588;DHT22;6359;51.450;7.346;2023-07-16T15:40:56;25.20;75.10
12588;DHT22;6359;51.450;7.346;2023-07-16T15:43:23;25.00;75.70
12588;DHT22;6359;51.450;7.346;2023-07-16T15:45:50;25.00;75.00
12588;DHT22;6359;51.450;7.346;2023-07-16T15:48:17;24.90;74.50
12588;DHT22;6359;51.450;7.346;2023-07-16T15:50:44;24.70;72.40